Key West, FL

12:32 PM EDT on August 21, 2014 (GMT -0400)
Key West International | Change Station
CLOSE
Current Station
Airport
Location: Key West,
Elevation: 0 ft
Nearby Weather Stations

Elev 0 ft 24.56 °N, 81.75 °W | Updated 39 minutes ago

Clear
Clear
90 °F
Feels Like 100 °F
N
9
Wind Variable Wind from ESE

Today
High -- | Low -- °F
--% Chance of Precip.
Yesterday
High -- | Low -- °F
Precip. -- in
7:04 AM 7:55 PM
Waning Crescent, 13% visible
Pressure 30.11 in
Visibility 10.0 miles
Clouds Clear
Heat Index 100 °F
Dew Point 75 °F
Humidity 61%
Rainfall 0.00 in
Snow Depth Not available.
UV 13 out of 12
Pollen 5.20 out of 12
Air Quality Not available.
Flu Activity Not available.
METAR KEYW 211553Z 11008KT 10SM VCTS CLR 32/24 A3011 RMK AO2 LTG DSNT N AND NE AND SW SLP196 T03220239

More Conditions Fewer Conditions

Pressure 30.11 in
Visibility 10.0 miles
Clouds Clear
Heat Index 100 °F
Dew Point 75 °F
Humidity 61%
Rainfall 0.00 in
Snow Depth Not available.
UV 13 out of 12
Pollen 5.20 out of 12
Air Quality Not available.
Flu Activity Not available.
METAR KEYW 211553Z 11008KT 10SM VCTS CLR 32/24 A3011 RMK AO2 LTG DSNT N AND NE AND SW SLP196 T03220239

More Conditions Fewer Conditions

Nowcast | as of 11:57 am EDT on August 21, 2014

Isolated showers and a few thunderstorms are tracking westward at around 10 knots across the Gulf and Atlantic waters surrounding the Florida Keys. Through 100 PM...the stronger thunderstorms will be found on the north side of the Lower Keys mainly across the Content Keys...Snipe Point...Smith Shoal light...and rock light. Mariners who encounter these storms should prepare for wind gusts up to 25 knots...frequent lightning strikes...and reduced visibility to 1 mile or less in heavy downpours.

×

10-Day Weather Forecast

Almanac

Astronomy

Aug. 21, 2014 Rise Set
Actual Time 7:04 AM EDT 7:55 PM EDT
Civil Twilight 6:40 AM EDT 8:19 PM EDT
Nautical Twilight 6:12 AM EDT 8:47 PM EDT
Astronomical Twilight 5:44 AM EDT 9:15 PM EDT
Moon 3:43 AM EDT 5:14 PM EDT
Length of Visible Light 13h 38m
Length of Day
12h 51m
Tomorrow will be 1m 18s shorter.
Waning Crescent, 13% of the Moon is Illuminated
Today
Waning Crescent
Aug 25
New
Sep 2
First Quarter
Sep 8
Full
Sep 15
Last Quarter

Today's Extremes

State Highs State Lows

Community

WunderPhotos

Upload Photos

1,745,957 photos uploaded!

Nearby

Snow Depth

Station Depth Elevation
No new snow has been reported.

Earthquake Activity

City Distance Mag. Time & Date
No recent earthquake activity has been reported nearby.
Minimum magnitude displayed is 2.5.

Coastal Water Temperatures

Place Temperature
No Stations Reporting

Nearby Weather Stations